createdAt,value
2018-02-10T00:01:11.054Z,26.60
2018-02-10T00:03:44.584Z,25.55
2018-02-10T00:06:18.141Z,24.25
2018-02-10T00:08:51.714Z,24.83
2018-02-10T00:11:25.314Z,26.17
2018-02-10T00:13:58.905Z,25.20
2018-02-10T00:16:32.431Z,25.58
2018-02-10T00:19:06.761Z,24.90
2018-02-10T00:21:40.485Z,25.17
2018-02-10T00:24:14.839Z,26.27
2018-02-10T00:26:51.004Z,27.00
2018-02-10T00:29:24.574Z,24.65
2018-02-10T00:31:58.125Z,23.92
2018-02-10T00:34:32.486Z,26.40
2018-02-10T00:37:06.987Z,24.15
2018-02-10T00:39:40.600Z,26.27
2018-02-10T00:42:14.309Z,25.60
2018-02-10T00:44:48.816Z,22.83
2018-02-10T00:47:22.539Z,25.98
2018-02-10T00:49:56.055Z,24.15
2018-02-10T00:52:30.482Z,24.37
2018-02-10T00:55:04.170Z,26.77
2018-02-10T00:57:37.718Z,24.67
2018-02-10T01:00:11.240Z,26.25
2018-02-10T01:02:45.555Z,25.10
2018-02-10T01:05:19.247Z,26.23
2018-02-10T01:07:52.798Z,24.77
2018-02-10T01:10:26.533Z,25.02
2018-02-10T01:13:00.136Z,23.42
2018-02-10T01:15:34.449Z,26.87
2018-02-10T01:18:08.804Z,25.15
2018-02-10T01:20:42.395Z,23.45
2018-02-10T01:23:15.981Z,25.92
2018-02-10T01:25:49.519Z,24.73
2018-02-10T01:28:23.024Z,27.05
2018-02-10T01:30:56.530Z,26.15
2018-02-10T01:33:32.811Z,27.98
2018-02-10T01:36:06.449Z,25.08
2018-02-10T01:38:39.952Z,26.62
2018-02-10T01:41:13.485Z,27.10
2018-02-10T01:43:47.052Z,24.15
2018-02-10T01:46:26.673Z,28.35
2018-02-10T01:49:00.237Z,25.42
2018-02-10T01:51:33.789Z,24.33
2018-02-10T01:54:08.121Z,26.17
2018-02-10T01:56:41.869Z,25.10
2018-02-10T01:59:15.421Z,24.60
2018-02-10T02:01:49.016Z,24.98
2018-02-10T02:04:22.585Z,25.62
2018-02-10T02:06:56.842Z,24.58
2018-02-10T02:09:30.426Z,25.25
2018-02-10T02:12:03.964Z,26.30
2018-02-10T02:14:37.725Z,26.12
2018-02-10T02:17:11.275Z,26.25
2018-02-10T02:19:44.960Z,23.42
2018-02-10T02:22:18.454Z,25.17
2018-02-10T02:24:54.667Z,26.60
2018-02-10T02:27:28.312Z,24.83
2018-02-10T02:30:01.908Z,26.90
2018-02-10T02:32:36.403Z,23.40
2018-02-10T02:35:10.050Z,24.00
2018-02-10T02:37:43.638Z,27.77
2018-02-10T02:40:17.246Z,27.83
2018-02-10T02:42:52.192Z,26.58
2018-02-10T02:45:25.900Z,25.30
2018-02-10T02:47:59.447Z,27.40
2018-02-10T02:50:36.369Z,25.98
2018-02-10T02:53:10.771Z,28.10
2018-02-10T02:55:44.364Z,26.45
2018-02-10T02:58:18.882Z,25.85
2018-02-10T03:00:52.496Z,28.33
2018-02-10T03:03:25.986Z,26.45
2018-02-10T03:05:59.772Z,25.58
2018-02-10T03:08:34.428Z,28.02
2018-02-10T03:11:08.000Z,25.00
2018-02-10T03:13:41.633Z,26.95
2018-02-10T03:16:15.212Z,24.98
2018-02-10T03:18:48.863Z,26.52
2018-02-10T03:21:23.291Z,25.25
2018-02-10T03:23:56.903Z,24.60
2018-02-10T03:26:30.545Z,25.95
2018-02-10T03:29:05.055Z,27.85
2018-02-10T03:31:38.689Z,28.77
2018-02-10T03:34:12.258Z,27.15
2018-02-10T03:36:46.606Z,34.75
2018-02-10T03:39:21.101Z,26.35
2018-02-10T03:41:54.807Z,29.25
2018-02-10T03:44:28.398Z,24.70
2018-02-10T03:47:01.954Z,25.05
2018-02-10T03:49:35.612Z,27.37
2018-02-10T03:52:09.959Z,27.02
2018-02-10T03:54:44.240Z,25.05
2018-02-10T03:57:17.820Z,28.85
2018-02-10T03:59:51.642Z,25.98
2018-02-10T04:02:25.216Z,27.10
2018-02-10T04:04:59.780Z,25.45
2018-02-10T04:07:33.523Z,24.75
2018-02-10T04:10:07.308Z,28.95
2018-02-10T04:12:40.934Z,30.98
2018-02-10T04:15:15.415Z,26.83
2018-02-10T04:17:49.950Z,26.70
2018-02-10T04:20:23.586Z,27.13
2018-02-10T04:22:57.191Z,26.70
2018-02-10T04:25:30.900Z,26.92
2018-02-10T04:28:04.441Z,24.95
2018-02-10T04:30:37.972Z,27.40
2018-02-10T04:33:15.022Z,26.95
2018-02-10T04:35:48.752Z,22.52
2018-02-10T04:38:22.312Z,25.48
2018-02-10T04:40:55.884Z,25.27
2018-02-10T04:43:29.420Z,25.75
2018-02-10T04:46:03.026Z,25.95
2018-02-10T04:48:36.741Z,26.17
2018-02-10T04:51:11.046Z,25.58
2018-02-10T04:53:45.382Z,24.70
2018-02-10T04:56:19.053Z,25.25
2018-02-10T04:58:54.608Z,24.25
2018-02-10T05:01:28.174Z,25.27
2018-02-10T05:04:01.810Z,24.20
2018-02-10T05:06:35.333Z,25.58
2018-02-10T05:09:09.001Z,23.52
2018-02-10T05:11:45.811Z,25.73
2018-02-10T05:14:19.417Z,23.40
2018-02-10T05:16:52.974Z,24.25
2018-02-10T05:19:27.502Z,22.52
2018-02-10T05:22:01.920Z,24.35
2018-02-10T05:24:35.484Z,24.87
2018-02-10T05:27:09.143Z,24.67
2018-02-10T05:29:42.797Z,23.80
2018-02-10T05:32:16.313Z,22.23
2018-02-10T05:34:49.867Z,23.95
2018-02-10T05:37:23.544Z,21.37
2018-02-10T05:39:57.098Z,23.00
2018-02-10T05:42:30.870Z,21.80
2018-02-10T05:45:04.552Z,24.10
2018-02-10T05:47:38.164Z,24.33
2018-02-10T05:50:11.740Z,22.85
2018-02-10T05:52:45.479Z,22.30
2018-02-10T05:55:18.964Z,21.95
2018-02-10T05:57:54.434Z,22.62
2018-02-10T06:00:28.198Z,23.23
2018-02-10T06:03:01.758Z,23.23
2018-02-10T06:05:35.358Z,23.80
2018-02-10T06:08:15.229Z,23.73
2018-02-10T06:10:48.857Z,22.50
2018-02-10T06:13:23.259Z,22.30
2018-02-10T06:15:57.003Z,23.08
2018-02-10T06:18:30.586Z,23.48
2018-02-10T06:21:04.294Z,23.58
2018-02-10T06:23:37.950Z,24.05
2018-02-10T06:26:12.266Z,23.30
2018-02-10T06:28:45.993Z,23.60
2018-02-10T06:31:22.878Z,21.15
2018-02-10T06:33:56.479Z,28.10
2018-02-10T06:36:30.184Z,22.30
2018-02-10T06:39:04.496Z,21.85
2018-02-10T06:41:38.179Z,20.60
2018-02-10T06:44:11.977Z,23.75
2018-02-10T06:46:45.549Z,22.20
2018-02-10T06:49:19.905Z,23.17
2018-02-10T06:51:54.343Z,23.10
2018-02-10T06:54:29.022Z,21.90
2018-02-10T06:57:02.685Z,21.45
2018-02-10T06:59:36.181Z,22.85
2018-02-10T07:02:09.856Z,22.95
2018-02-10T07:04:43.476Z,24.17
2018-02-10T07:07:17.076Z,22.08
2018-02-10T07:09:50.665Z,22.58
2018-02-10T07:12:25.115Z,23.55
2018-02-10T07:14:58.804Z,22.08
2018-02-10T07:17:32.395Z,24.17
2018-02-10T07:20:08.952Z,24.05
2018-02-10T07:22:43.490Z,23.27
2018-02-10T07:25:17.792Z,23.10
2018-02-10T07:27:51.439Z,20.65
2018-02-10T07:30:25.005Z,26.30
2018-02-10T07:32:58.530Z,26.60
2018-02-10T07:35:32.273Z,25.83
2018-02-10T07:38:05.923Z,22.55
2018-02-10T07:40:40.528Z,25.42
2018-02-10T07:43:14.353Z,24.02
2018-02-10T07:45:48.211Z,21.95
2018-02-10T07:48:21.932Z,21.55
2018-02-10T07:50:55.821Z,23.30
2018-02-10T07:53:29.636Z,22.73
2018-02-10T07:56:03.340Z,21.52
2018-02-10T07:58:37.116Z,21.42
2018-02-10T08:01:10.954Z,23.08
2018-02-10T08:03:44.667Z,21.92
2018-02-10T08:06:19.196Z,21.08
2018-02-10T08:08:52.795Z,21.15
2018-02-10T08:11:26.526Z,20.95
2018-02-10T08:14:00.110Z,23.33
2018-02-10T08:16:33.696Z,21.48
2018-02-10T08:19:08.208Z,21.62
2018-02-10T08:21:41.854Z,21.65
2018-02-10T08:24:15.565Z,20.90
2018-02-10T08:26:49.109Z,20.15
2018-02-10T08:29:22.869Z,23.65
2018-02-10T08:31:56.420Z,24.83
2018-02-10T08:34:30.120Z,24.15
2018-02-10T08:37:03.802Z,25.35
2018-02-10T08:39:37.540Z,22.62
2018-02-10T08:42:11.080Z,22.50
2018-02-10T08:44:44.634Z,22.02
2018-02-10T08:47:18.221Z,21.33
2018-02-10T08:49:51.858Z,20.73
2018-02-10T08:52:25.498Z,21.58
2018-02-10T08:54:59.364Z,39.25
2018-02-10T08:57:32.910Z,25.25
2018-02-10T09:00:06.560Z,21.05
2018-02-10T09:02:40.148Z,22.87
2018-02-10T09:05:13.703Z,23.55
2018-02-10T09:07:48.177Z,20.70
2018-02-10T09:10:22.495Z,16.40
2018-02-10T09:12:56.808Z,19.80
2018-02-10T09:15:30.513Z,18.73
2018-02-10T09:18:04.112Z,17.65
2018-02-10T09:20:37.735Z,20.02
2018-02-10T09:23:11.277Z,20.30
2018-02-10T09:25:45.050Z,17.75
2018-02-10T09:28:19.325Z,18.15
2018-02-10T09:30:52.929Z,17.87
2018-02-10T09:33:26.454Z,17.20
2018-02-10T09:35:59.965Z,19.75
2018-02-10T09:38:33.548Z,14.95
2018-02-10T09:41:07.256Z,13.18
2018-02-10T09:43:40.838Z,12.90
2018-02-10T09:46:15.160Z,13.90
2018-02-10T09:48:48.784Z,15.23
2018-02-10T09:51:22.277Z,12.52
2018-02-10T09:53:56.134Z,12.50
2018-02-10T09:56:29.744Z,19.00
2018-02-10T09:59:03.392Z,15.13
2018-02-10T10:01:37.013Z,10.23
2018-02-10T10:04:11.475Z,11.38
2018-02-10T10:06:44.984Z,12.63
2018-02-10T10:09:18.526Z,11.70
2018-02-10T10:11:52.070Z,10.80
2018-02-10T10:14:25.729Z,11.35
2018-02-10T10:16:59.457Z,10.90
2018-02-10T10:19:33.026Z,11.20
2018-02-10T10:22:07.506Z,10.80
2018-02-10T10:24:41.318Z,11.98
2018-02-10T10:27:15.088Z,13.60
2018-02-10T10:29:48.839Z,15.80
2018-02-10T10:32:22.516Z,17.08
2018-02-10T10:34:56.290Z,17.23
2018-02-10T10:37:29.886Z,16.87
2018-02-10T10:40:03.523Z,13.68
2018-02-10T10:42:37.081Z,14.77
2018-02-10T10:45:11.362Z,13.98
2018-02-10T10:47:45.094Z,15.23
2018-02-10T10:50:18.818Z,14.27
2018-02-10T10:52:52.372Z,16.15
2018-02-10T10:55:25.961Z,17.02
2018-02-10T10:57:59.555Z,16.37
2018-02-10T11:00:33.892Z,16.50
2018-02-10T11:03:07.720Z,18.33
2018-02-10T11:05:41.478Z,14.20
2018-02-10T11:08:15.017Z,16.25
2018-02-10T11:10:49.566Z,15.00
2018-02-10T11:13:23.993Z,14.73
2018-02-10T11:15:57.569Z,16.75
2018-02-10T11:18:31.888Z,14.70
2018-02-10T11:21:05.586Z,16.35
2018-02-10T11:23:39.262Z,15.80
2018-02-10T11:26:12.889Z,15.25
2018-02-10T11:28:46.622Z,16.85
2018-02-10T11:31:21.128Z,16.98
2018-02-10T11:33:55.638Z,19.37
2018-02-10T11:36:30.036Z,16.87
2018-02-10T11:39:03.619Z,19.58
2018-02-10T11:41:37.170Z,25.55
2018-02-10T11:44:10.735Z,15.55
2018-02-10T11:46:44.542Z,16.35
2018-02-10T11:49:18.281Z,21.90
2018-02-10T11:51:52.611Z,18.35
2018-02-10T11:54:27.039Z,16.75
2018-02-10T11:57:01.483Z,22.05
2018-02-10T11:59:35.145Z,25.12
2018-02-10T12:02:08.701Z,18.92
2018-02-10T12:04:42.327Z,17.87
2018-02-10T12:07:15.923Z,17.65
2018-02-10T12:09:49.738Z,17.30
2018-02-10T12:12:23.842Z,17.45
2018-02-10T12:14:57.541Z,17.12
2018-02-10T12:17:31.842Z,17.37
2018-02-10T12:20:05.561Z,17.55
2018-02-10T12:22:39.263Z,16.73
2018-02-10T12:25:12.869Z,16.40
2018-02-10T12:27:46.368Z,14.65
2018-02-10T12:30:19.972Z,17.23
2018-02-10T12:32:53.535Z,16.80
2018-02-10T12:35:27.286Z,22.75
2018-02-10T12:38:00.844Z,17.30
2018-02-10T12:40:34.450Z,19.87
2018-02-10T12:43:07.969Z,19.15
2018-02-10T12:45:41.556Z,18.17
2018-02-10T13:01:31.356Z,17.92
2018-02-10T13:04:05.120Z,16.23
2018-02-10T13:06:38.787Z,16.20
2018-02-10T13:09:12.300Z,19.20
2018-02-10T13:11:46.011Z,19.83
2018-02-10T13:14:19.752Z,18.70
2018-02-10T13:16:53.339Z,17.90
2018-02-10T13:19:27.634Z,18.52
2018-02-10T13:22:01.308Z,16.75
2018-02-10T13:24:34.953Z,17.80
2018-02-10T13:27:08.559Z,17.25
2018-02-10T13:29:42.170Z,21.37
2018-02-10T13:32:15.863Z,20.12
2018-02-10T13:34:49.518Z,19.23
2018-02-10T13:37:23.060Z,16.02
2018-02-10T13:39:56.833Z,16.60
2018-02-10T13:42:30.476Z,14.43
2018-02-10T13:45:04.779Z,17.25
2018-02-10T13:47:38.370Z,16.80
2018-02-10T13:50:11.970Z,18.90
2018-02-10T13:52:45.602Z,16.05
2018-02-10T13:55:19.308Z,16.10
2018-02-10T13:57:52.979Z,15.57
2018-02-10T14:00:26.601Z,16.20
2018-02-10T14:03:00.389Z,15.93
2018-02-10T14:05:34.002Z,16.77
2018-02-10T14:08:07.696Z,17.48
2018-02-10T14:10:41.306Z,18.27
2018-02-10T14:13:14.909Z,18.70
2018-02-10T14:15:48.487Z,17.35
2018-02-10T14:18:22.211Z,17.92
2018-02-10T14:20:56.656Z,30.88
2018-02-10T14:23:30.328Z,17.40
2018-02-10T14:26:03.971Z,16.23
2018-02-10T14:28:37.747Z,15.30
2018-02-10T14:31:11.369Z,16.30
2018-02-10T14:33:45.932Z,17.70
2018-02-10T14:36:19.608Z,17.00
2018-02-10T14:38:54.085Z,15.23
2018-02-10T14:41:27.613Z,17.35
2018-02-10T14:44:01.291Z,15.77
2018-02-10T14:46:34.861Z,14.20
2018-02-10T14:49:08.406Z,17.65
2018-02-10T14:51:41.982Z,15.68
2018-02-10T14:54:15.548Z,15.77
2018-02-10T14:56:49.891Z,16.75
2018-02-10T14:59:23.480Z,16.55
2018-02-10T15:01:57.096Z,17.80
2018-02-10T15:04:31.296Z,16.75
2018-02-10T15:07:04.994Z,17.27
2018-02-10T15:09:39.438Z,17.00
2018-02-10T15:12:13.764Z,17.83
2018-02-10T15:14:47.305Z,17.00
2018-02-10T15:17:20.893Z,20.10
2018-02-10T15:19:54.566Z,16.65
2018-02-10T15:22:28.219Z,16.70
2018-02-10T15:25:01.937Z,15.82
2018-02-10T15:27:35.661Z,16.30
2018-02-10T15:30:21.302Z,17.55
2018-02-10T15:33:06.776Z,18.05
2018-02-10T15:35:40.305Z,20.05
2018-02-10T15:38:13.939Z,20.77
2018-02-10T15:40:47.576Z,19.48
2018-02-10T15:43:21.169Z,17.55
2018-02-10T15:45:55.635Z,16.42
2018-02-10T15:48:29.227Z,26.48
2018-02-10T15:51:02.859Z,27.77
2018-02-10T15:53:36.455Z,22.08
2018-02-10T15:56:10.040Z,18.90
2018-02-10T15:58:43.566Z,18.87
2018-02-10T16:01:17.271Z,20.35
2018-02-10T16:03:50.846Z,20.20
2018-02-10T16:06:25.165Z,22.33
2018-02-10T16:08:59.488Z,20.35
2018-02-10T16:11:33.894Z,17.85
2018-02-10T16:14:07.662Z,17.85
2018-02-10T16:16:41.234Z,17.92
2018-02-10T16:19:14.805Z,21.37
2018-02-10T16:21:48.409Z,19.70
2018-02-10T16:24:22.839Z,19.60
2018-02-10T16:26:56.515Z,20.85
2018-02-10T16:29:30.159Z,26.25
2018-02-10T16:32:03.954Z,20.85
2018-02-10T16:34:38.503Z,22.48
2018-02-10T16:37:12.185Z,22.23
2018-02-10T16:39:45.783Z,27.27
2018-02-10T16:42:19.374Z,31.37
2018-02-10T16:44:53.080Z,36.97
2018-02-10T16:47:26.736Z,31.92
2018-02-10T16:50:00.300Z,27.48
2018-02-10T16:52:33.838Z,23.05
2018-02-10T16:55:07.367Z,21.30
2018-02-10T16:57:40.969Z,20.15
2018-02-10T17:00:14.561Z,19.35
2018-02-10T17:02:48.157Z,23.67
2018-02-10T17:05:21.844Z,22.52
2018-02-10T17:07:55.346Z,23.27
2018-02-10T17:10:28.905Z,22.80
2018-02-10T17:13:02.552Z,22.65
2018-02-10T17:15:36.888Z,22.58
2018-02-10T17:18:10.512Z,27.90
2018-02-10T17:20:44.107Z,25.83
2018-02-10T17:23:17.636Z,26.85
2018-02-10T17:25:51.209Z,24.48
2018-02-10T17:28:25.505Z,27.25
2018-02-10T17:30:59.837Z,28.45
2018-02-10T17:33:33.430Z,24.85
2018-02-10T17:36:07.152Z,25.52
2018-02-10T17:38:40.836Z,25.23
2018-02-10T17:41:14.397Z,31.65
2018-02-10T17:43:47.941Z,22.85
2018-02-10T17:46:21.653Z,33.22
2018-02-10T17:48:55.210Z,25.12
2018-02-10T17:51:28.736Z,24.90
2018-02-10T17:54:03.055Z,23.23
2018-02-10T17:56:36.720Z,26.90
2018-02-10T17:59:10.317Z,22.13
2018-02-10T18:01:43.964Z,24.30
2018-02-10T18:04:17.578Z,24.25
2018-02-10T18:06:52.068Z,28.77
2018-02-10T18:09:25.716Z,25.00
2018-02-10T18:12:00.116Z,25.50
2018-02-10T18:14:34.398Z,29.83
2018-02-10T18:17:08.135Z,29.40
2018-02-10T18:19:41.860Z,40.63
2018-02-10T18:22:15.410Z,27.80
2018-02-10T18:24:49.010Z,27.70
2018-02-10T18:27:22.566Z,25.80
2018-02-10T18:29:56.277Z,25.92
2018-02-10T18:32:29.927Z,24.63
2018-02-10T18:35:04.241Z,26.67
2018-02-10T18:37:37.820Z,23.87
2018-02-10T18:40:11.566Z,28.40
2018-02-10T18:42:45.128Z,31.15
2018-02-10T18:45:18.739Z,28.45
2018-02-10T18:47:52.462Z,25.95
2018-02-10T18:50:26.212Z,23.92
2018-02-10T18:52:59.969Z,25.23
2018-02-10T18:55:34.474Z,26.12
2018-02-10T18:58:08.082Z,27.95
2018-02-10T19:00:41.614Z,27.62
2018-02-10T19:03:15.937Z,29.80
2018-02-10T19:05:49.621Z,37.15
2018-02-10T19:08:23.206Z,33.22
2018-02-10T19:10:56.738Z,35.05
2018-02-10T19:13:30.481Z,31.00
2018-02-10T19:16:04.182Z,28.45
2018-02-10T19:18:37.824Z,27.27
2018-02-10T19:21:11.548Z,27.45
2018-02-10T19:23:45.156Z,26.77
2018-02-10T19:26:18.811Z,26.45
2018-02-10T19:28:52.317Z,29.37
2018-02-10T19:31:26.736Z,26.55
2018-02-10T19:34:00.337Z,27.70
2018-02-10T19:36:33.893Z,28.75
2018-02-10T19:39:07.488Z,30.10
2018-02-10T19:41:41.962Z,27.23
2018-02-10T19:44:15.696Z,28.33
2018-02-10T19:46:49.996Z,26.98
2018-02-10T19:49:24.501Z,25.00
2018-02-10T19:51:58.201Z,26.42
2018-02-10T19:54:32.285Z,27.35
2018-02-10T19:57:06.901Z,27.48
2018-02-10T19:59:40.574Z,26.85
2018-02-10T20:02:14.249Z,26.33
2018-02-10T20:04:47.879Z,26.17
2018-02-10T20:07:23.256Z,27.80
2018-02-10T20:09:56.829Z,28.38
2018-02-10T20:12:30.484Z,28.90
2018-02-10T20:15:04.056Z,26.62
2018-02-10T20:17:37.764Z,25.98
2018-02-10T20:20:11.502Z,27.33
2018-02-10T20:22:45.007Z,27.30
2018-02-10T20:25:18.624Z,27.33
2018-02-10T20:27:52.348Z,27.37
2018-02-10T20:30:25.984Z,28.62
2018-02-10T20:32:59.602Z,26.98
2018-02-10T20:35:33.159Z,31.20
2018-02-10T20:38:07.621Z,29.65
2018-02-10T20:40:41.414Z,27.75
2018-02-10T20:43:15.857Z,28.62
2018-02-10T20:45:49.518Z,25.30
2018-02-10T20:48:23.127Z,28.70
2018-02-10T20:50:56.719Z,25.75
2018-02-10T20:53:30.332Z,23.67
2018-02-10T20:56:03.986Z,23.20
2018-02-10T20:58:37.579Z,26.58
2018-02-10T21:01:11.908Z,25.55
2018-02-10T21:03:48.540Z,25.88
2018-02-10T21:06:22.100Z,23.95
2018-02-10T21:08:56.407Z,26.62
2018-02-10T21:11:29.954Z,23.80
2018-02-10T21:14:03.551Z,20.95
2018-02-10T21:16:38.000Z,20.52
2018-02-10T21:19:11.569Z,20.98
2018-02-10T21:21:45.872Z,21.92
2018-02-10T21:24:19.575Z,21.25
2018-02-10T21:26:54.033Z,23.27
2018-02-10T21:29:27.751Z,20.08
2018-02-10T21:32:01.256Z,19.35
2018-02-10T21:34:34.842Z,17.95
2018-02-10T21:37:08.434Z,20.75
2018-02-10T21:39:42.100Z,20.30
2018-02-10T21:42:15.742Z,18.90
2018-02-10T21:44:49.295Z,19.00
2018-02-10T21:47:22.818Z,17.67
2018-02-10T21:49:56.410Z,17.15
2018-02-10T21:52:29.917Z,17.15
2018-02-10T21:55:03.539Z,17.73
2018-02-10T21:57:38.086Z,17.85
2018-02-10T22:00:11.682Z,18.20
2018-02-10T22:02:45.257Z,17.85
2018-02-10T22:05:19.552Z,16.12
2018-02-10T22:07:54.049Z,18.40
2018-02-10T22:10:27.747Z,18.12
2018-02-10T22:13:01.362Z,16.17
2018-02-10T22:15:34.930Z,17.05
2018-02-10T22:18:08.679Z,17.17
2018-02-10T22:20:42.315Z,16.65
2018-02-10T22:23:15.929Z,16.02
2018-02-10T22:25:49.572Z,17.95
2018-02-10T22:28:23.195Z,16.08
2018-02-10T22:30:56.861Z,16.00
2018-02-10T22:33:30.407Z,16.12
2018-02-10T22:36:04.008Z,16.42
2018-02-10T22:38:37.734Z,15.88
2018-02-10T22:41:11.306Z,16.70
2018-02-10T22:43:45.677Z,17.15
2018-02-10T22:46:19.308Z,18.27
2018-02-10T22:48:53.763Z,17.33
2018-02-10T22:51:28.178Z,17.35
2018-02-10T22:54:02.450Z,16.95
2018-02-10T22:56:36.012Z,15.05
2018-02-10T22:59:09.827Z,15.43
2018-02-10T23:01:43.520Z,14.52
2018-02-10T23:04:17.178Z,13.38
2018-02-10T23:06:50.799Z,14.35
2018-02-10T23:09:24.407Z,14.38
2018-02-10T23:11:57.971Z,12.95
2018-02-10T23:14:31.624Z,14.40
2018-02-10T23:17:05.214Z,14.27
2018-02-10T23:19:38.825Z,15.50
2018-02-10T23:22:12.504Z,14.32
2018-02-10T23:24:46.119Z,14.40
2018-02-10T23:27:19.697Z,14.93
2018-02-10T23:29:53.228Z,14.87
2018-02-10T23:32:26.881Z,14.45
2018-02-10T23:35:00.457Z,14.75
2018-02-10T23:37:34.128Z,15.15
2018-02-10T23:40:07.698Z,13.85
2018-02-10T23:42:41.309Z,13.60
2018-02-10T23:45:14.841Z,13.50
2018-02-10T23:47:48.367Z,12.65
2018-02-10T23:50:22.654Z,13.98
2018-02-10T23:52:56.371Z,16.52
2018-02-10T23:55:30.086Z,14.00
2018-02-10T23:58:03.618Z,14.30
